createdAt,value
2022-12-04T00:01:16.014Z,82.03
2022-12-04T00:03:43.855Z,63.38
2022-12-04T00:06:13.048Z,81.22
2022-12-04T00:08:41.189Z,55.17
2022-12-04T00:11:10.665Z,62.97
2022-12-04T00:13:40.577Z,59.10
2022-12-04T00:16:09.688Z,76.63
2022-12-04T00:18:37.434Z,70.60
2022-12-04T00:21:06.265Z,52.70
2022-12-04T00:23:34.448Z,56.15
2022-12-04T00:26:02.644Z,59.83
2022-12-04T00:28:30.377Z,61.22
2022-12-04T00:30:59.460Z,57.00
2022-12-04T00:33:27.447Z,52.50
2022-12-04T00:35:59.605Z,56.22
2022-12-04T00:38:27.713Z,52.65
2022-12-04T00:40:56.607Z,45.05
2022-12-04T00:43:24.557Z,53.85
2022-12-04T00:45:52.281Z,51.28
2022-12-04T00:48:22.610Z,53.75
2022-12-04T00:50:55.405Z,48.92
2022-12-04T00:53:24.614Z,55.67
2022-12-04T00:55:53.106Z,57.75
2022-12-04T00:58:20.722Z,64.70
2022-12-04T01:00:48.478Z,51.63
2022-12-04T01:03:16.244Z,49.22
2022-12-04T01:05:46.647Z,48.35
2022-12-04T01:08:14.551Z,50.53
2022-12-04T01:10:43.254Z,48.28
2022-12-04T01:13:11.317Z,45.92
2022-12-04T01:15:40.320Z,46.17
2022-12-04T01:18:08.374Z,52.10
2022-12-04T01:20:36.140Z,47.85
2022-12-04T01:23:05.079Z,47.85
2022-12-04T01:25:32.959Z,49.42
2022-12-04T01:28:01.679Z,47.92
2022-12-04T01:30:29.760Z,44.05
2022-12-04T01:32:57.996Z,47.67
2022-12-04T01:35:26.026Z,48.67
2022-12-04T01:37:54.592Z,46.03
2022-12-04T01:40:25.323Z,45.63
2022-12-04T01:42:52.923Z,44.80
2022-12-04T01:45:40.115Z,47.53
2022-12-04T01:48:17.680Z,48.47
2022-12-04T01:50:46.562Z,46.47
2022-12-04T01:53:14.880Z,43.08
2022-12-04T01:55:44.813Z,42.83
2022-12-04T01:58:13.298Z,40.65
2022-12-04T02:00:40.959Z,42.20
2022-12-04T02:03:08.772Z,40.55
2022-12-04T02:05:36.428Z,41.30
2022-12-04T02:08:05.848Z,48.30
2022-12-04T02:10:43.689Z,41.13
2022-12-04T02:13:17.821Z,41.17
2022-12-04T02:15:51.533Z,39.20
2022-12-04T02:18:28.683Z,38.45
2022-12-04T02:21:06.136Z,38.20
2022-12-04T02:24:14.550Z,38.35
2022-12-04T02:26:48.762Z,38.80
2022-12-04T02:29:29.408Z,41.60
2022-12-04T02:32:04.345Z,40.67
2022-12-04T02:34:43.223Z,38.15
2022-12-04T02:37:16.337Z,36.00
2022-12-04T02:39:48.719Z,37.58
2022-12-04T02:42:22.701Z,42.17
2022-12-04T02:44:58.597Z,37.50
2022-12-04T02:47:27.693Z,37.22
2022-12-04T02:50:00.246Z,38.42
2022-12-04T02:52:32.887Z,34.78
2022-12-04T02:55:08.617Z,38.92
2022-12-04T02:57:43.678Z,38.35
2022-12-04T03:00:15.226Z,38.35
2022-12-04T03:02:56.645Z,40.22
2022-12-04T03:05:42.651Z,37.72
2022-12-04T03:08:16.715Z,38.92
2022-12-04T03:10:49.788Z,41.20
2022-12-04T03:13:21.624Z,38.85
2022-12-04T03:18:30.577Z,34.42
2022-12-04T03:21:27.384Z,39.38
2022-12-04T03:24:03.585Z,37.28
2022-12-04T03:26:38.048Z,38.58
2022-12-04T03:29:13.603Z,39.00
2022-12-04T03:31:48.868Z,37.67
2022-12-04T03:34:25.137Z,37.63
2022-12-04T03:36:58.264Z,37.65
2022-12-04T03:39:31.441Z,38.30
2022-12-04T03:42:02.467Z,41.15
2022-12-04T03:44:40.573Z,36.30
2022-12-04T03:47:17.539Z,39.08
2022-12-04T03:49:54.359Z,37.92
2022-12-04T03:52:25.544Z,37.35
2022-12-04T03:54:57.973Z,38.23
2022-12-04T03:57:29.801Z,40.67
2022-12-04T04:00:05.710Z,39.47
2022-12-04T04:03:04.752Z,38.17
2022-12-04T04:05:38.688Z,38.25
2022-12-04T04:08:29.512Z,41.35
2022-12-04T04:11:03.658Z,42.45
2022-12-04T04:13:55.669Z,37.95
2022-12-04T04:16:42.982Z,40.10
2022-12-04T04:19:32.645Z,42.00
2022-12-04T04:22:21.147Z,42.17
2022-12-04T04:24:53.056Z,42.35
2022-12-04T04:27:21.191Z,46.17
2022-12-04T04:29:52.592Z,41.58
2022-12-04T04:32:29.325Z,40.38
2022-12-04T04:35:04.767Z,41.05
2022-12-04T04:37:41.575Z,40.75
2022-12-04T04:40:15.286Z,43.90
2022-12-04T04:42:50.931Z,41.42
2022-12-04T04:45:24.212Z,40.00
2022-12-04T04:47:56.564Z,44.53
2022-12-04T04:50:27.169Z,40.95
2022-12-04T04:53:00.704Z,39.15
2022-12-04T04:55:34.319Z,44.53
2022-12-04T04:58:07.652Z,39.22
2022-12-04T05:00:35.606Z,41.40
2022-12-04T05:03:03.760Z,41.47
2022-12-04T05:05:32.840Z,40.28
2022-12-04T05:08:00.625Z,38.80
2022-12-04T05:10:28.257Z,37.67
2022-12-04T05:12:55.902Z,39.50
2022-12-04T05:15:56.665Z,37.70
2022-12-04T05:18:25.600Z,37.53
2022-12-04T05:20:53.622Z,35.05
2022-12-04T05:23:22.274Z,35.47
2022-12-04T05:25:49.979Z,35.58
2022-12-04T05:28:17.653Z,37.63
2022-12-04T05:30:45.295Z,36.35
2022-12-04T05:33:13.118Z,36.55
2022-12-04T05:35:40.754Z,34.97
2022-12-04T05:38:11.426Z,36.58
2022-12-04T05:40:39.008Z,38.55
2022-12-04T05:43:06.645Z,36.10
2022-12-04T05:45:34.223Z,36.13
2022-12-04T05:48:02.607Z,34.83
2022-12-04T05:50:30.152Z,36.00
2022-12-04T05:53:00.021Z,38.97
2022-12-04T05:55:28.934Z,62.85
2022-12-04T05:57:58.418Z,67.20
2022-12-04T06:00:29.681Z,52.38
2022-12-04T06:02:57.626Z,51.10
2022-12-04T06:05:25.611Z,47.35
2022-12-04T06:07:54.106Z,41.33
2022-12-04T06:13:15.576Z,45.60
2022-12-04T06:15:47.224Z,38.50
2022-12-04T06:18:15.007Z,36.85
2022-12-04T06:20:42.695Z,35.20
2022-12-04T06:23:10.400Z,37.08
2022-12-04T06:25:38.123Z,33.03
2022-12-04T06:28:07.693Z,32.10
2022-12-04T06:30:37.058Z,33.55
2022-12-04T06:33:11.583Z,33.97
2022-12-04T06:35:39.543Z,27.88
2022-12-04T06:43:59.120Z,32.45
2022-12-04T06:46:30.148Z,30.20
2022-12-04T06:49:00.785Z,28.10
2022-12-04T06:51:30.674Z,25.67
2022-12-04T06:53:58.997Z,27.50
2022-12-04T06:56:29.722Z,28.23
2022-12-04T06:59:03.582Z,26.60
2022-12-04T07:01:35.230Z,25.35
2022-12-04T07:04:04.257Z,27.38
2022-12-04T07:06:33.712Z,25.08
2022-12-04T07:09:03.936Z,29.08
2022-12-04T07:11:32.584Z,26.23
2022-12-04T07:14:00.588Z,30.38
2022-12-04T07:16:29.379Z,26.17
2022-12-04T07:19:00.579Z,25.08
2022-12-04T07:21:53.550Z,24.30
2022-12-04T07:24:21.664Z,24.23
2022-12-04T07:27:14.713Z,24.00
2022-12-04T07:29:45.658Z,23.25
2022-12-04T07:32:14.134Z,22.13
2022-12-04T07:34:43.600Z,21.40
2022-12-04T07:40:03.043Z,22.23
2022-12-04T07:42:30.644Z,27.23
2022-12-04T07:44:58.161Z,21.10
2022-12-04T07:47:25.742Z,24.17
2022-12-04T07:49:54.893Z,23.67
2022-12-04T07:52:22.616Z,22.08
2022-12-04T07:54:53.591Z,21.52
2022-12-04T07:57:21.119Z,20.42
2022-12-04T07:59:50.068Z,20.08
2022-12-04T08:02:17.706Z,21.38
2022-12-04T08:04:45.414Z,18.83
2022-12-04T08:07:14.667Z,19.77
2022-12-04T08:09:43.394Z,19.20
2022-12-04T08:12:11.084Z,18.60
2022-12-04T08:14:38.847Z,19.80
2022-12-04T08:17:07.396Z,22.30
2022-12-04T08:19:35.032Z,20.75
2022-12-04T08:22:02.669Z,20.85
2022-12-04T08:24:31.654Z,19.58
2022-12-04T08:26:59.620Z,18.70
2022-12-04T08:29:27.175Z,21.15
2022-12-04T08:31:54.930Z,18.77
2022-12-04T08:34:22.627Z,19.08
2022-12-04T08:36:52.697Z,21.27
2022-12-04T08:39:20.567Z,17.77
2022-12-04T08:41:53.870Z,21.67
2022-12-04T08:44:24.676Z,19.45
2022-12-04T08:46:54.367Z,20.77
2022-12-04T08:49:21.957Z,20.92
2022-12-04T08:51:49.664Z,22.63
2022-12-04T08:54:19.190Z,20.55
2022-12-04T08:56:47.575Z,19.55
2022-12-04T08:59:16.445Z,21.45
2022-12-04T09:01:44.113Z,20.17
2022-12-04T09:04:13.764Z,18.83
2022-12-04T09:06:41.383Z,20.52
2022-12-04T09:09:09.005Z,17.77
2022-12-04T09:11:36.571Z,16.27
2022-12-04T09:14:04.854Z,17.35
2022-12-04T09:16:34.655Z,19.33
2022-12-04T09:19:02.257Z,18.05
2022-12-04T09:21:30.084Z,18.90
2022-12-04T09:23:59.673Z,20.15
2022-12-04T09:26:30.710Z,20.90
2022-12-04T09:29:01.254Z,18.25
2022-12-04T09:31:29.283Z,21.50
2022-12-04T09:34:01.470Z,17.83
2022-12-04T09:38:58.397Z,19.20
2022-12-04T09:41:47.912Z,18.13
2022-12-04T09:44:21.694Z,17.50
2022-12-04T09:46:53.051Z,18.80
2022-12-04T09:49:26.515Z,19.42
2022-12-04T09:52:01.595Z,18.17
2022-12-04T09:54:35.004Z,17.45
2022-12-04T09:57:13.339Z,18.80
2022-12-04T09:59:45.589Z,20.08
2022-12-04T10:02:32.903Z,20.83
2022-12-04T10:05:03.812Z,18.50
2022-12-04T10:07:38.571Z,19.63
2022-12-04T10:10:13.842Z,19.75
2022-12-04T10:12:54.612Z,20.58
2022-12-04T10:15:30.665Z,19.15
2022-12-04T10:18:13.668Z,18.92
2022-12-04T10:20:59.618Z,18.40
2022-12-04T10:23:43.662Z,21.42
2022-12-04T10:26:16.615Z,19.50
2022-12-04T10:28:55.278Z,18.08
2022-12-04T10:31:25.896Z,18.05
2022-12-04T10:34:22.187Z,21.60
2022-12-04T10:36:54.200Z,19.05
2022-12-04T10:39:26.667Z,21.10
2022-12-04T10:42:02.468Z,20.30
2022-12-04T10:44:30.633Z,20.63
2022-12-04T10:47:01.714Z,20.13
2022-12-04T10:49:31.008Z,20.10
2022-12-04T10:52:00.034Z,19.98
2022-12-04T10:54:33.873Z,22.70
2022-12-04T10:57:04.014Z,20.45
2022-12-04T10:59:31.600Z,21.70
2022-12-04T11:02:06.719Z,20.40
2022-12-04T11:04:36.230Z,20.15
2022-12-04T11:07:08.441Z,21.45
2022-12-04T11:09:36.839Z,19.73
2022-12-04T11:12:17.628Z,20.42
2022-12-04T11:14:47.353Z,19.85
2022-12-04T11:17:18.837Z,21.55
2022-12-04T11:19:47.764Z,22.25
2022-12-04T11:22:20.266Z,22.77
2022-12-04T11:24:54.128Z,21.67
2022-12-04T11:27:31.412Z,21.55
2022-12-04T11:30:01.737Z,22.92
2022-12-04T11:32:33.581Z,25.10
2022-12-04T11:35:09.604Z,22.93
2022-12-04T11:37:44.990Z,23.25
2022-12-04T11:40:19.339Z,26.05
2022-12-04T11:42:59.153Z,22.70
2022-12-04T11:45:27.496Z,26.42
2022-12-04T11:47:57.762Z,23.63
2022-12-04T11:50:39.343Z,24.13
2022-12-04T11:53:16.222Z,23.33
2022-12-04T11:55:54.712Z,24.85
2022-12-04T11:58:46.813Z,24.63
2022-12-04T12:01:28.053Z,23.35
2022-12-04T12:04:09.565Z,24.70
2022-12-04T12:09:23.831Z,24.70
2022-12-04T12:12:00.682Z,24.77
2022-12-04T12:14:36.638Z,25.20
2022-12-04T12:17:15.879Z,25.63
2022-12-04T12:20:10.562Z,26.67
2022-12-04T12:22:54.131Z,25.45
2022-12-04T12:25:31.217Z,28.13
2022-12-04T12:28:13.039Z,31.55
2022-12-04T12:30:54.724Z,44.63
2022-12-04T12:33:26.726Z,60.65
2022-12-04T12:36:01.696Z,33.25
2022-12-04T12:38:36.178Z,35.53
2022-12-04T12:41:07.671Z,53.65
2022-12-04T12:43:38.689Z,30.60
2022-12-04T12:46:13.612Z,27.97
2022-12-04T12:48:47.605Z,25.98
2022-12-04T12:51:30.074Z,24.05
2022-12-04T12:54:10.374Z,29.33
2022-12-04T12:56:49.205Z,28.58
2022-12-04T12:59:23.457Z,25.35
2022-12-04T13:02:00.519Z,24.95
2022-12-04T13:04:36.577Z,24.20
2022-12-04T13:07:20.591Z,24.25
2022-12-04T13:09:55.785Z,24.13
2022-12-04T13:12:26.688Z,26.98
2022-12-04T13:14:55.167Z,25.00
2022-12-04T13:17:31.997Z,24.20
2022-12-04T13:20:09.570Z,25.13
2022-12-04T13:22:46.593Z,23.60
2022-12-04T13:25:35.898Z,26.35
2022-12-04T13:28:16.548Z,28.92
2022-12-04T13:30:50.950Z,27.50
2022-12-04T13:33:39.184Z,35.13
2022-12-04T13:36:20.685Z,31.80
2022-12-04T13:39:03.689Z,33.67
2022-12-04T13:41:36.563Z,34.88
2022-12-04T13:44:14.448Z,39.22
2022-12-04T13:46:57.601Z,36.88
2022-12-04T13:49:28.958Z,37.40
2022-12-04T13:51:58.528Z,36.85
2022-12-04T13:54:29.625Z,40.13
2022-12-04T13:56:59.580Z,43.00
2022-12-04T13:59:39.742Z,40.95
2022-12-04T14:02:26.786Z,46.35
2022-12-04T14:04:58.205Z,62.45
2022-12-04T14:07:30.938Z,57.03
2022-12-04T14:10:04.532Z,58.30
2022-12-04T14:12:36.336Z,61.90
2022-12-04T14:15:08.647Z,56.83
2022-12-04T14:17:39.399Z,67.18
2022-12-04T14:20:10.121Z,62.25
2022-12-04T14:22:43.775Z,80.88
2022-12-04T14:25:35.759Z,69.55
2022-12-04T14:28:23.976Z,86.15
2022-12-04T14:31:07.159Z,100.65
2022-12-04T14:33:39.047Z,54.20
2022-12-04T14:38:37.229Z,40.03
2022-12-04T14:41:07.571Z,45.35
2022-12-04T14:46:18.241Z,42.22
2022-12-04T14:48:57.600Z,44.53
2022-12-04T14:51:33.664Z,46.53
2022-12-04T14:54:10.243Z,43.80
2022-12-04T14:56:54.681Z,43.35
2022-12-04T14:59:26.810Z,47.97
2022-12-04T15:01:56.631Z,51.83
2022-12-04T15:04:28.966Z,54.35
2022-12-04T15:07:00.963Z,48.55
2022-12-04T15:09:47.417Z,55.47
2022-12-04T15:12:35.485Z,53.15
2022-12-04T15:15:10.505Z,64.35
2022-12-04T15:17:39.538Z,59.72
2022-12-04T15:20:19.681Z,56.58
2022-12-04T15:22:48.442Z,57.75
2022-12-04T15:25:20.596Z,53.13
2022-12-04T15:27:50.656Z,48.78
2022-12-04T15:30:21.339Z,52.22
2022-12-04T15:32:53.207Z,52.33
2022-12-04T15:35:25.122Z,75.45
2022-12-04T15:40:23.316Z,143.32
2022-12-04T15:42:52.668Z,147.45
2022-12-04T15:45:26.462Z,96.68
2022-12-04T15:47:56.575Z,141.65
2022-12-04T15:50:27.698Z,130.60
2022-12-04T15:53:01.540Z,157.40
2022-12-04T15:55:31.456Z,162.57
2022-12-04T15:58:02.228Z,155.93
2022-12-04T16:00:33.592Z,139.25
2022-12-04T16:03:05.904Z,108.28
2022-12-04T16:05:37.188Z,75.75
2022-12-04T16:08:24.146Z,60.53
2022-12-04T16:10:59.983Z,53.30
2022-12-04T16:13:33.581Z,48.40
2022-12-04T16:16:02.417Z,49.15
2022-12-04T16:18:31.386Z,46.03
2022-12-04T16:20:59.738Z,51.10
2022-12-04T16:23:28.591Z,49.70
2022-12-04T16:25:56.244Z,46.15
2022-12-04T16:28:23.940Z,46.53
2022-12-04T16:30:53.439Z,44.25
2022-12-04T16:33:21.165Z,37.13
2022-12-04T16:35:50.481Z,43.78
2022-12-04T16:38:18.846Z,44.28
2022-12-04T16:40:48.394Z,43.00
2022-12-04T16:43:17.914Z,42.13
2022-12-04T16:45:48.092Z,43.13
2022-12-04T16:48:16.298Z,41.35
2022-12-04T16:50:44.399Z,42.65
2022-12-04T16:53:17.676Z,40.60
2022-12-04T16:55:47.269Z,38.50
2022-12-04T16:58:15.390Z,42.47
2022-12-04T17:00:45.975Z,39.78
2022-12-04T17:03:19.596Z,40.53
2022-12-04T17:05:48.199Z,40.47
2022-12-04T17:08:17.421Z,38.58
2022-12-04T17:10:45.169Z,41.45
2022-12-04T17:13:12.790Z,39.40
2022-12-04T17:15:40.618Z,37.03
2022-12-04T17:18:12.882Z,35.08
2022-12-04T17:20:44.106Z,36.90
2022-12-04T17:23:13.244Z,40.20
2022-12-04T17:25:42.190Z,35.60
2022-12-04T17:28:11.701Z,37.38
2022-12-04T17:30:39.331Z,36.17
2022-12-04T17:33:06.890Z,37.88
2022-12-04T17:35:36.580Z,38.10
2022-12-04T17:38:06.402Z,37.53
2022-12-04T17:40:34.536Z,32.67
2022-12-04T17:43:03.766Z,33.70
2022-12-04T17:45:31.649Z,35.38
2022-12-04T17:48:01.199Z,32.63
2022-12-04T17:50:28.929Z,48.88
2022-12-04T17:52:57.093Z,41.38
2022-12-04T17:55:24.648Z,43.28
2022-12-04T17:57:52.224Z,37.53
2022-12-04T18:00:21.536Z,33.90
2022-12-04T18:02:53.333Z,39.20
2022-12-04T18:05:23.590Z,47.03
2022-12-04T18:07:52.122Z,38.60
2022-12-04T18:10:20.581Z,45.38
2022-12-04T18:12:48.359Z,42.67
2022-12-04T18:15:16.067Z,43.92
2022-12-04T18:17:45.342Z,40.00
2022-12-04T18:20:13.427Z,40.13
2022-12-04T18:22:41.008Z,38.30
2022-12-04T18:25:09.562Z,34.38
2022-12-04T18:27:41.627Z,32.65
2022-12-04T18:30:10.810Z,34.17
2022-12-04T18:32:38.498Z,34.70
2022-12-04T18:35:08.183Z,34.42
2022-12-04T18:37:35.827Z,31.90
2022-12-04T18:40:06.582Z,33.88
2022-12-04T18:42:35.106Z,33.45
2022-12-04T18:45:03.197Z,30.58
2022-12-04T18:47:31.017Z,33.40
2022-12-04T18:49:59.085Z,34.03
2022-12-04T18:52:28.342Z,33.30
2022-12-04T18:54:56.089Z,33.50
2022-12-04T18:57:23.886Z,32.30
2022-12-04T18:59:53.151Z,35.60
2022-12-04T19:02:20.841Z,33.55
2022-12-04T19:04:48.600Z,30.25
2022-12-04T19:07:16.261Z,32.63
2022-12-04T19:10:10.505Z,28.88
2022-12-04T19:12:33.209Z,33.40
2022-12-04T19:15:00.788Z,31.40
2022-12-04T19:17:29.562Z,29.73
2022-12-04T19:19:57.168Z,32.70
2022-12-04T19:22:24.917Z,30.02
2022-12-04T19:24:53.842Z,30.35
2022-12-04T19:27:21.523Z,32.20
2022-12-04T19:29:50.062Z,30.58
2022-12-04T19:32:17.676Z,33.17
2022-12-04T19:34:48.878Z,30.48
2022-12-04T19:37:17.109Z,32.22
2022-12-04T19:39:44.659Z,30.42
2022-12-04T19:42:13.910Z,29.38
2022-12-04T19:44:49.834Z,29.17
2022-12-04T19:47:18.303Z,30.80
2022-12-04T19:49:46.349Z,29.50
2022-12-04T19:52:14.587Z,34.13
2022-12-04T19:54:42.579Z,31.30
2022-12-04T19:57:10.323Z,31.23
2022-12-04T19:59:44.540Z,30.30
2022-12-04T20:02:14.585Z,30.38
2022-12-04T20:04:43.021Z,30.45
2022-12-04T20:07:11.117Z,29.27
2022-12-04T20:09:38.923Z,28.50
2022-12-04T20:12:07.468Z,31.73
2022-12-04T20:14:36.860Z,27.55
2022-12-04T20:17:06.921Z,26.38
2022-12-04T20:19:35.108Z,27.63
2022-12-04T20:22:02.727Z,31.75
2022-12-04T20:24:31.775Z,29.77
2022-12-04T20:27:00.230Z,31.67
2022-12-04T20:29:28.391Z,27.65
2022-12-04T20:31:56.623Z,28.83
2022-12-04T20:34:25.571Z,29.88
2022-12-04T20:36:53.559Z,28.67
2022-12-04T20:39:22.077Z,27.17
2022-12-04T20:41:49.641Z,27.48
2022-12-04T20:44:20.436Z,26.30
2022-12-04T20:46:49.754Z,25.65
2022-12-04T20:49:22.536Z,26.00
2022-12-04T20:51:52.853Z,25.65
2022-12-04T20:54:22.523Z,27.75
2022-12-04T20:56:53.075Z,28.98
2022-12-04T20:59:23.199Z,25.02
2022-12-04T21:01:51.652Z,27.42
2022-12-04T21:04:20.115Z,27.65
2022-12-04T21:06:48.175Z,30.95
2022-12-04T21:09:19.689Z,26.73
2022-12-04T21:11:49.369Z,27.95
2022-12-04T21:14:36.311Z,27.90
2022-12-04T21:17:04.633Z,31.08
2022-12-04T21:19:36.484Z,30.00
2022-12-04T21:22:04.183Z,28.15
2022-12-04T21:24:38.169Z,28.52
2022-12-04T21:27:05.901Z,30.38
2022-12-04T21:29:34.622Z,31.52
2022-12-04T21:32:02.543Z,29.58
2022-12-04T21:34:30.210Z,30.27
2022-12-04T21:36:58.013Z,31.27
2022-12-04T21:39:25.749Z,30.27
2022-12-04T21:42:12.211Z,28.05
2022-12-04T21:44:39.896Z,32.10
2022-12-04T21:47:07.578Z,28.08
2022-12-04T21:49:36.021Z,32.58
2022-12-04T21:52:03.695Z,32.85
2022-12-04T21:54:32.584Z,32.05
2022-12-04T21:57:03.567Z,29.85
2022-12-04T21:59:31.398Z,29.95
2022-12-04T22:01:59.192Z,29.67
2022-12-04T22:04:27.084Z,32.85
2022-12-04T22:06:54.725Z,31.48
2022-12-04T22:09:22.484Z,33.33
2022-12-04T22:11:50.097Z,31.27
2022-12-04T22:14:20.525Z,31.10
2022-12-04T22:16:51.540Z,33.67
2022-12-04T22:19:19.482Z,32.57
2022-12-04T22:21:47.125Z,32.47
2022-12-04T22:24:14.842Z,29.13
2022-12-04T22:26:42.379Z,35.00
2022-12-04T22:29:41.922Z,29.45
2022-12-04T22:32:00.572Z,33.72
2022-12-04T22:34:28.582Z,32.80
2022-12-04T22:36:57.591Z,30.70
2022-12-04T22:39:25.456Z,33.58
2022-12-04T22:41:53.027Z,33.58
2022-12-04T22:44:20.680Z,32.70
2022-12-04T22:46:48.349Z,35.72
2022-12-04T22:49:17.488Z,32.95
2022-12-04T22:51:45.064Z,34.15
2022-12-04T22:54:14.573Z,32.45
2022-12-04T22:56:43.426Z,32.17
2022-12-04T22:59:11.687Z,30.73
2022-12-04T23:01:39.509Z,34.05
2022-12-04T23:04:07.184Z,34.35
2022-12-04T23:06:36.455Z,30.48
2022-12-04T23:09:08.640Z,32.47
2022-12-04T23:11:37.469Z,33.88
2022-12-04T23:14:07.539Z,32.75
2022-12-04T23:16:38.116Z,32.17
2022-12-04T23:19:08.600Z,33.80
2022-12-04T23:21:37.558Z,36.28
2022-12-04T23:24:05.982Z,33.17
2022-12-04T23:26:35.546Z,30.98
2022-12-04T23:29:05.310Z,32.95
2022-12-04T23:31:37.829Z,32.28
2022-12-04T23:34:06.361Z,32.53
2022-12-04T23:36:34.595Z,36.05
2022-12-04T23:39:03.573Z,35.05
2022-12-04T23:41:32.681Z,33.47
2022-12-04T23:44:00.298Z,33.85
2022-12-04T23:46:32.139Z,32.97
2022-12-04T23:49:01.609Z,35.22
2022-12-04T23:51:31.213Z,35.38
2022-12-04T23:53:59.734Z,34.97
2022-12-04T23:56:30.548Z,32.28
2022-12-04T23:58:58.876Z,34.33
